sensor_id;sensor_type;location;lat;lon;timestamp;temperature;humidity
28244;DHT22;15510;52.512;13.300;2023-04-10T00:01:40;8.00;99.90
28244;DHT22;15510;52.512;13.300;2023-04-10T00:04:05;8.00;99.90
28244;DHT22;15510;52.512;13.300;2023-04-10T00:06:32;7.90;99.90
28244;DHT22;15510;52.512;13.300;2023-04-10T00:08:58;7.90;99.90
28244;DHT22;15510;52.512;13.300;2023-04-10T00:11:24;7.90;99.90
28244;DHT22;15510;52.512;13.300;2023-04-10T00:13:51;7.90;99.90
28244;DHT22;15510;52.512;13.300;2023-04-10T00:16:17;7.90;99.90
28244;DHT22;15510;52.512;13.300;2023-04-10T00:18:42;7.90;99.90
28244;DHT22;15510;52.512;13.300;2023-04-10T00:21:08;7.80;99.90
28244;DHT22;15510;52.512;13.300;2023-04-10T00:23:34;7.80;99.90
28244;DHT22;15510;52.512;13.300;2023-04-10T00:26:02;7.80;99.90
28244;DHT22;15510;52.512;13.300;2023-04-10T00:28:28;7.80;99.90
28244;DHT22;15510;52.512;13.300;2023-04-10T00:30:54;7.70;99.90
28244;DHT22;15510;52.512;13.300;2023-04-10T00:33:20;7.70;99.90
28244;DHT22;15510;52.512;13.300;2023-04-10T00:35:45;7.70;99.90
28244;DHT22;15510;52.512;13.300;2023-04-10T00:38:11;7.70;99.90
28244;DHT22;15510;52.512;13.300;2023-04-10T00:40:37;7.60;99.90
28244;DHT22;15510;52.512;13.300;2023-04-10T00:43:03;7.60;99.90
28244;DHT22;15510;52.512;13.300;2023-04-10T00:45:29;7.70;99.90
28244;DHT22;15510;52.512;13.300;2023-04-10T00:47:55;7.60;99.90
28244;DHT22;15510;52.512;13.300;2023-04-10T00:50:21;7.60;99.90
28244;DHT22;15510;52.512;13.300;2023-04-10T00:52:48;7.60;99.90
28244;DHT22;15510;52.512;13.300;2023-04-10T00:55:14;7.60;99.90
28244;DHT22;15510;52.512;13.300;2023-04-10T00:57:44;7.60;99.90
28244;DHT22;15510;52.512;13.300;2023-04-10T01:00:14;7.60;99.90
28244;DHT22;15510;52.512;13.300;2023-04-10T01:05:09;7.50;99.90
28244;DHT22;15510;52.512;13.300;2023-04-10T01:13:14;7.50;99.90
28244;DHT22;15510;52.512;13.300;2023-04-10T01:15:46;7.50;99.90
28244;DHT22;15510;52.512;13.300;2023-04-10T01:18:21;7.50;99.90
28244;DHT22;15510;52.512;13.300;2023-04-10T01:20:47;7.50;99.90
28244;DHT22;15510;52.512;13.300;2023-04-10T01:26:11;7.50;99.90
28244;DHT22;15510;52.512;13.300;2023-04-10T01:28:58;7.50;99.90
28244;DHT22;15510;52.512;13.300;2023-04-10T01:31:35;7.40;99.90
28244;DHT22;15510;52.512;13.300;2023-04-10T01:34:14;7.40;99.90
28244;DHT22;15510;52.512;13.300;2023-04-10T01:37:01;7.40;99.90
28244;DHT22;15510;52.512;13.300;2023-04-10T01:39:29;7.40;99.90
28244;DHT22;15510;52.512;13.300;2023-04-10T01:41:58;7.40;99.90
28244;DHT22;15510;52.512;13.300;2023-04-10T01:44:37;7.40;99.90
28244;DHT22;15510;52.512;13.300;2023-04-10T01:47:06;7.40;99.90
28244;DHT22;15510;52.512;13.300;2023-04-10T01:49:33;7.40;99.90
28244;DHT22;15510;52.512;13.300;2023-04-10T01:52:02;7.40;99.90
28244;DHT22;15510;52.512;13.300;2023-04-10T01:54:31;7.30;99.90
28244;DHT22;15510;52.512;13.300;2023-04-10T01:57:02;7.30;99.90
28244;DHT22;15510;52.512;13.300;2023-04-10T01:59:30;7.30;99.90
28244;DHT22;15510;52.512;13.300;2023-04-10T02:02:00;7.30;99.90
28244;DHT22;15510;52.512;13.300;2023-04-10T02:04:26;7.20;99.90
28244;DHT22;15510;52.512;13.300;2023-04-10T02:12:15;7.10;99.90
28244;DHT22;15510;52.512;13.300;2023-04-10T02:14:45;7.10;99.90
28244;DHT22;15510;52.512;13.300;2023-04-10T02:17:15;7.10;99.90
28244;DHT22;15510;52.512;13.300;2023-04-10T02:19:42;7.10;99.90
28244;DHT22;15510;52.512;13.300;2023-04-10T02:22:13;7.20;99.90
28244;DHT22;15510;52.512;13.300;2023-04-10T02:24:40;7.20;99.90
28244;DHT22;15510;52.512;13.300;2023-04-10T02:27:06;7.20;99.90
28244;DHT22;15510;52.512;13.300;2023-04-10T02:29:32;7.20;99.90
28244;DHT22;15510;52.512;13.300;2023-04-10T02:32:01;7.10;99.90
28244;DHT22;15510;52.512;13.300;2023-04-10T02:34:27;7.10;99.90
28244;DHT22;15510;52.512;13.300;2023-04-10T02:36:53;7.00;99.90
28244;DHT22;15510;52.512;13.300;2023-04-10T02:39:19;7.00;99.90
28244;DHT22;15510;52.512;13.300;2023-04-10T02:41:50;7.00;99.90
28244;DHT22;15510;52.512;13.300;2023-04-10T02:44:16;7.00;99.90
28244;DHT22;15510;52.512;13.300;2023-04-10T02:46:42;7.10;99.90
28244;DHT22;15510;52.512;13.300;2023-04-10T02:49:10;7.10;99.90
28244;DHT22;15510;52.512;13.300;2023-04-10T02:51:37;7.10;99.90
28244;DHT22;15510;52.512;13.300;2023-04-10T02:54:03;7.20;99.90
28244;DHT22;15510;52.512;13.300;2023-04-10T02:56:33;7.20;99.90
28244;DHT22;15510;52.512;13.300;2023-04-10T02:58:59;7.20;99.90
28244;DHT22;15510;52.512;13.300;2023-04-10T03:01:26;7.20;99.90
28244;DHT22;15510;52.512;13.300;2023-04-10T03:03:51;7.20;99.90
28244;DHT22;15510;52.512;13.300;2023-04-10T03:06:26;7.20;99.90
28244;DHT22;15510;52.512;13.300;2023-04-10T03:08:54;7.10;99.90
28244;DHT22;15510;52.512;13.300;2023-04-10T03:11:20;7.10;99.90
28244;DHT22;15510;52.512;13.300;2023-04-10T03:13:47;7.20;99.90
28244;DHT22;15510;52.512;13.300;2023-04-10T03:16:14;7.20;99.90
28244;DHT22;15510;52.512;13.300;2023-04-10T03:18:42;7.20;99.90
28244;DHT22;15510;52.512;13.300;2023-04-10T03:21:08;7.10;99.90
28244;DHT22;15510;52.512;13.300;2023-04-10T03:23:33;7.00;99.90
28244;DHT22;15510;52.512;13.300;2023-04-10T03:25:59;7.00;99.90
28244;DHT22;15510;52.512;13.300;2023-04-10T03:28:28;7.00;99.90
28244;DHT22;15510;52.512;13.300;2023-04-10T03:30:55;7.00;99.90
28244;DHT22;15510;52.512;13.300;2023-04-10T03:33:21;6.90;99.90
28244;DHT22;15510;52.512;13.300;2023-04-10T03:35:47;6.90;99.90
28244;DHT22;15510;52.512;13.300;2023-04-10T03:38:13;6.90;99.90
28244;DHT22;15510;52.512;13.300;2023-04-10T03:40:38;6.80;99.90
28244;DHT22;15510;52.512;13.300;2023-04-10T03:43:07;6.70;99.90
28244;DHT22;15510;52.512;13.300;2023-04-10T03:45:33;6.70;99.90
28244;DHT22;15510;52.512;13.300;2023-04-10T03:47:59;6.70;99.90
28244;DHT22;15510;52.512;13.300;2023-04-10T03:50:30;6.70;99.90
28244;DHT22;15510;52.512;13.300;2023-04-10T03:52:59;6.60;99.90
28244;DHT22;15510;52.512;13.300;2023-04-10T03:55:25;6.50;99.90
28244;DHT22;15510;52.512;13.300;2023-04-10T03:57:51;6.50;99.90
28244;DHT22;15510;52.512;13.300;2023-04-10T04:00:20;6.50;99.90
28244;DHT22;15510;52.512;13.300;2023-04-10T04:02:47;6.50;99.90
28244;DHT22;15510;52.512;13.300;2023-04-10T04:05:26;6.50;99.90
28244;DHT22;15510;52.512;13.300;2023-04-10T04:08:15;6.40;99.90
28244;DHT22;15510;52.512;13.300;2023-04-10T04:11:15;6.40;99.90
28244;DHT22;15510;52.512;13.300;2023-04-10T04:14:16;6.40;99.90
28244;DHT22;15510;52.512;13.300;2023-04-10T04:16:54;6.40;99.90
28244;DHT22;15510;52.512;13.300;2023-04-10T04:19:42;6.40;99.90
28244;DHT22;15510;52.512;13.300;2023-04-10T04:22:22;6.30;99.90
28244;DHT22;15510;52.512;13.300;2023-04-10T04:25:12;6.30;99.90
28244;DHT22;15510;52.512;13.300;2023-04-10T04:27:56;6.30;99.90
28244;DHT22;15510;52.512;13.300;2023-04-10T04:30:57;6.40;99.90
28244;DHT22;15510;52.512;13.300;2023-04-10T04:33:41;6.40;99.90
28244;DHT22;15510;52.512;13.300;2023-04-10T04:36:26;6.40;99.90
28244;DHT22;15510;52.512;13.300;2023-04-10T04:39:04;6.40;99.90
28244;DHT22;15510;52.512;13.300;2023-04-10T04:41:38;6.40;99.90
28244;DHT22;15510;52.512;13.300;2023-04-10T04:44:21;6.50;99.90
28244;DHT22;15510;52.512;13.300;2023-04-10T04:47:00;6.50;99.90
28244;DHT22;15510;52.512;13.300;2023-04-10T04:49:58;6.50;99.90
28244;DHT22;15510;52.512;13.300;2023-04-10T04:52:44;6.50;99.90
28244;DHT22;15510;52.512;13.300;2023-04-10T04:55:20;6.60;99.90
28244;DHT22;15510;52.512;13.300;2023-04-10T04:57:55;6.60;99.90
28244;DHT22;15510;52.512;13.300;2023-04-10T05:00:39;6.70;99.90
28244;DHT22;15510;52.512;13.300;2023-04-10T05:03:31;6.70;99.90
28244;DHT22;15510;52.512;13.300;2023-04-10T05:06:19;6.90;99.90
28244;DHT22;15510;52.512;13.300;2023-04-10T05:09:00;6.90;99.90
28244;DHT22;15510;52.512;13.300;2023-04-10T05:11:44;7.00;99.90
28244;DHT22;15510;52.512;13.300;2023-04-10T05:14:33;7.00;99.90
28244;DHT22;15510;52.512;13.300;2023-04-10T05:17:31;7.10;99.90
28244;DHT22;15510;52.512;13.300;2023-04-10T05:20:16;7.20;99.90
28244;DHT22;15510;52.512;13.300;2023-04-10T05:23:04;7.30;99.90
28244;DHT22;15510;52.512;13.300;2023-04-10T05:26:02;7.40;99.90
28244;DHT22;15510;52.512;13.300;2023-04-10T05:28:50;7.50;99.90
28244;DHT22;15510;52.512;13.300;2023-04-10T05:31:28;7.70;99.90
28244;DHT22;15510;52.512;13.300;2023-04-10T05:34:02;7.90;99.90
28244;DHT22;15510;52.512;13.300;2023-04-10T05:36:35;8.10;99.90
28244;DHT22;15510;52.512;13.300;2023-04-10T05:39:27;8.10;99.90
28244;DHT22;15510;52.512;13.300;2023-04-10T05:42:27;8.20;99.90
28244;DHT22;15510;52.512;13.300;2023-04-10T05:45:09;8.30;99.90
28244;DHT22;15510;52.512;13.300;2023-04-10T05:47:58;8.40;99.90
28244;DHT22;15510;52.512;13.300;2023-04-10T05:50:37;8.50;99.90
28244;DHT22;15510;52.512;13.300;2023-04-10T05:53:26;8.70;99.90
28244;DHT22;15510;52.512;13.300;2023-04-10T05:56:13;8.80;99.90
28244;DHT22;15510;52.512;13.300;2023-04-10T05:58:43;9.00;99.90
28244;DHT22;15510;52.512;13.300;2023-04-10T06:01:27;9.20;99.90
28244;DHT22;15510;52.512;13.300;2023-04-10T06:03:59;9.30;99.90
28244;DHT22;15510;52.512;13.300;2023-04-10T06:06:25;9.50;99.90
28244;DHT22;15510;52.512;13.300;2023-04-10T06:08:51;9.50;99.90
28244;DHT22;15510;52.512;13.300;2023-04-10T06:11:17;9.60;99.90
28244;DHT22;15510;52.512;13.300;2023-04-10T06:13:48;9.60;99.90
28244;DHT22;15510;52.512;13.300;2023-04-10T06:16:14;9.60;99.90
28244;DHT22;15510;52.512;13.300;2023-04-10T06:18:42;9.70;99.90
28244;DHT22;15510;52.512;13.300;2023-04-10T06:21:09;9.70;99.90
28244;DHT22;15510;52.512;13.300;2023-04-10T06:23:34;9.80;99.90
28244;DHT22;15510;52.512;13.300;2023-04-10T06:26:01;9.80;99.90
28244;DHT22;15510;52.512;13.300;2023-04-10T06:28:28;9.70;99.90
28244;DHT22;15510;52.512;13.300;2023-04-10T06:30:59;9.60;99.90
28244;DHT22;15510;52.512;13.300;2023-04-10T06:33:31;9.60;99.90
28244;DHT22;15510;52.512;13.300;2023-04-10T06:36:00;9.50;99.90
28244;DHT22;15510;52.512;13.300;2023-04-10T06:38:29;9.50;99.90
28244;DHT22;15510;52.512;13.300;2023-04-10T06:40:55;9.60;99.90
28244;DHT22;15510;52.512;13.300;2023-04-10T06:43:21;9.60;99.90
28244;DHT22;15510;52.512;13.300;2023-04-10T06:45:47;9.60;99.90
28244;DHT22;15510;52.512;13.300;2023-04-10T06:48:13;9.70;99.90
28244;DHT22;15510;52.512;13.300;2023-04-10T06:50:39;9.80;99.90
28244;DHT22;15510;52.512;13.300;2023-04-10T06:53:05;9.80;99.90
28244;DHT22;15510;52.512;13.300;2023-04-10T06:55:31;9.80;99.90
28244;DHT22;15510;52.512;13.300;2023-04-10T06:57:57;9.70;99.90
28244;DHT22;15510;52.512;13.300;2023-04-10T07:00:22;9.60;99.90
28244;DHT22;15510;52.512;13.300;2023-04-10T07:02:48;9.60;99.90
28244;DHT22;15510;52.512;13.300;2023-04-10T07:05:14;9.60;99.90
28244;DHT22;15510;52.512;13.300;2023-04-10T07:07:41;9.60;99.90
28244;DHT22;15510;52.512;13.300;2023-04-10T07:10:07;9.60;99.90
28244;DHT22;15510;52.512;13.300;2023-04-10T07:12:33;9.60;99.90
28244;DHT22;15510;52.512;13.300;2023-04-10T07:14:59;9.60;99.90
28244;DHT22;15510;52.512;13.300;2023-04-10T07:17:24;9.90;99.90
28244;DHT22;15510;52.512;13.300;2023-04-10T07:19:50;10.00;99.90
28244;DHT22;15510;52.512;13.300;2023-04-10T07:22:16;10.10;99.90
28244;DHT22;15510;52.512;13.300;2023-04-10T07:24:42;10.20;99.90
28244;DHT22;15510;52.512;13.300;2023-04-10T07:27:08;10.30;99.90
28244;DHT22;15510;52.512;13.300;2023-04-10T07:29:34;10.40;99.90
28244;DHT22;15510;52.512;13.300;2023-04-10T07:32:00;10.50;99.90
28244;DHT22;15510;52.512;13.300;2023-04-10T07:34:26;10.60;99.90
28244;DHT22;15510;52.512;13.300;2023-04-10T07:36:52;10.70;99.90
28244;DHT22;15510;52.512;13.300;2023-04-10T07:39:17;10.80;99.90
28244;DHT22;15510;52.512;13.300;2023-04-10T07:41:43;11.00;99.90
28244;DHT22;15510;52.512;13.300;2023-04-10T07:44:09;11.10;99.90
28244;DHT22;15510;52.512;13.300;2023-04-10T07:46:35;11.30;99.90
28244;DHT22;15510;52.512;13.300;2023-04-10T07:49:01;11.40;99.90
28244;DHT22;15510;52.512;13.300;2023-04-10T07:51:27;11.50;99.90
28244;DHT22;15510;52.512;13.300;2023-04-10T07:53:53;11.60;99.90
28244;DHT22;15510;52.512;13.300;2023-04-10T07:56:20;11.70;99.90
28244;DHT22;15510;52.512;13.300;2023-04-10T07:58:46;11.80;99.90
28244;DHT22;15510;52.512;13.300;2023-04-10T08:01:12;11.90;99.90
28244;DHT22;15510;52.512;13.300;2023-04-10T08:03:43;12.00;99.90
28244;DHT22;15510;52.512;13.300;2023-04-10T08:06:09;12.00;99.90
28244;DHT22;15510;52.512;13.300;2023-04-10T08:08:40;12.00;99.90
28244;DHT22;15510;52.512;13.300;2023-04-10T08:13:53;12.20;99.90
28244;DHT22;15510;52.512;13.300;2023-04-10T08:16:25;12.30;99.90
28244;DHT22;15510;52.512;13.300;2023-04-10T08:18:51;12.40;99.90
28244;DHT22;15510;52.512;13.300;2023-04-10T08:21:18;12.50;99.90
28244;DHT22;15510;52.512;13.300;2023-04-10T08:23:44;12.50;99.90
28244;DHT22;15510;52.512;13.300;2023-04-10T08:26:13;12.60;99.90
28244;DHT22;15510;52.512;13.300;2023-04-10T08:28:38;12.60;99.90
28244;DHT22;15510;52.512;13.300;2023-04-10T08:31:04;12.70;99.90
28244;DHT22;15510;52.512;13.300;2023-04-10T08:33:30;12.80;99.90
28244;DHT22;15510;52.512;13.300;2023-04-10T08:35:56;12.80;99.90
28244;DHT22;15510;52.512;13.300;2023-04-10T08:38:22;12.90;99.90
28244;DHT22;15510;52.512;13.300;2023-04-10T08:40:50;12.90;99.90
28244;DHT22;15510;52.512;13.300;2023-04-10T08:43:16;12.90;99.90
28244;DHT22;15510;52.512;13.300;2023-04-10T08:45:41;13.00;99.90
28244;DHT22;15510;52.512;13.300;2023-04-10T08:48:09;13.10;99.90
28244;DHT22;15510;52.512;13.300;2023-04-10T08:50:40;13.10;99.90
28244;DHT22;15510;52.512;13.300;2023-04-10T08:53:11;13.10;99.90
28244;DHT22;15510;52.512;13.300;2023-04-10T08:55:38;13.20;99.90
28244;DHT22;15510;52.512;13.300;2023-04-10T08:58:05;13.20;99.90
28244;DHT22;15510;52.512;13.300;2023-04-10T09:00:35;13.30;99.90
28244;DHT22;15510;52.512;13.300;2023-04-10T09:03:13;13.40;99.90
28244;DHT22;15510;52.512;13.300;2023-04-10T09:05:39;13.50;99.90
28244;DHT22;15510;52.512;13.300;2023-04-10T09:08:07;13.50;99.90
28244;DHT22;15510;52.512;13.300;2023-04-10T09:10:33;13.50;99.90
28244;DHT22;15510;52.512;13.300;2023-04-10T09:12:59;13.50;99.90
28244;DHT22;15510;52.512;13.300;2023-04-10T09:15:25;13.60;99.90
28244;DHT22;15510;52.512;13.300;2023-04-10T09:18:01;13.60;99.90
28244;DHT22;15510;52.512;13.300;2023-04-10T09:20:30;13.80;99.90
28244;DHT22;15510;52.512;13.300;2023-04-10T09:22:57;13.80;99.90
28244;DHT22;15510;52.512;13.300;2023-04-10T09:25:34;13.80;99.90
28244;DHT22;15510;52.512;13.300;2023-04-10T09:28:02;13.80;99.90
28244;DHT22;15510;52.512;13.300;2023-04-10T09:30:37;13.90;99.90
28244;DHT22;15510;52.512;13.300;2023-04-10T09:33:26;14.00;99.90
28244;DHT22;15510;52.512;13.300;2023-04-10T09:35:53;14.10;99.90
28244;DHT22;15510;52.512;13.300;2023-04-10T09:38:20;14.10;99.90
28244;DHT22;15510;52.512;13.300;2023-04-10T09:40:47;14.20;99.90
28244;DHT22;15510;52.512;13.300;2023-04-10T09:43:20;14.20;99.90
28244;DHT22;15510;52.512;13.300;2023-04-10T09:45:53;14.30;99.90
28244;DHT22;15510;52.512;13.300;2023-04-10T09:48:22;14.30;99.90
28244;DHT22;15510;52.512;13.300;2023-04-10T09:50:48;14.40;99.90
28244;DHT22;15510;52.512;13.300;2023-04-10T09:53:16;14.40;99.90
28244;DHT22;15510;52.512;13.300;2023-04-10T09:55:45;14.50;99.90
28244;DHT22;15510;52.512;13.300;2023-04-10T09:58:11;14.50;99.90
28244;DHT22;15510;52.512;13.300;2023-04-10T10:00:42;14.50;99.90
28244;DHT22;15510;52.512;13.300;2023-04-10T10:03:18;14.60;99.90
28244;DHT22;15510;52.512;13.300;2023-04-10T10:05:50;14.60;99.90
28244;DHT22;15510;52.512;13.300;2023-04-10T10:08:16;14.60;99.90
28244;DHT22;15510;52.512;13.300;2023-04-10T10:10:52;14.70;99.90
28244;DHT22;15510;52.512;13.300;2023-04-10T10:13:27;14.70;99.90
28244;DHT22;15510;52.512;13.300;2023-04-10T10:16:12;14.80;99.90
28244;DHT22;15510;52.512;13.300;2023-04-10T10:19:07;14.90;99.90
28244;DHT22;15510;52.512;13.300;2023-04-10T10:21:34;15.00;99.90
28244;DHT22;15510;52.512;13.300;2023-04-10T10:24:02;15.10;99.90
28244;DHT22;15510;52.512;13.300;2023-04-10T10:26:32;15.10;99.90
28244;DHT22;15510;52.512;13.300;2023-04-10T10:29:03;15.20;99.90
28244;DHT22;15510;52.512;13.300;2023-04-10T10:31:34;15.30;99.90
28244;DHT22;15510;52.512;13.300;2023-04-10T10:34:02;15.30;99.90
28244;DHT22;15510;52.512;13.300;2023-04-10T10:36:30;15.30;99.90
28244;DHT22;15510;52.512;13.300;2023-04-10T10:41:57;15.40;99.90
28244;DHT22;15510;52.512;13.300;2023-04-10T10:44:38;15.50;99.90
28244;DHT22;15510;52.512;13.300;2023-04-10T10:49:54;15.80;99.90
28244;DHT22;15510;52.512;13.300;2023-04-10T10:57:51;16.40;99.90
28244;DHT22;15510;52.512;13.300;2023-04-10T11:00:18;16.60;99.90
28244;DHT22;15510;52.512;13.300;2023-04-10T11:02:44;16.60;99.90
28244;DHT22;15510;52.512;13.300;2023-04-10T11:05:22;16.80;99.90
28244;DHT22;15510;52.512;13.300;2023-04-10T11:19:02;19.50;99.90
28244;DHT22;15510;52.512;13.300;2023-04-10T11:21:29;20.20;99.90
28244;DHT22;15510;52.512;13.300;2023-04-10T11:29:31;21.20;98.40
28244;DHT22;15510;52.512;13.300;2023-04-10T11:32:02;21.90;97.10
28244;DHT22;15510;52.512;13.300;2023-04-10T11:34:29;22.30;94.10
28244;DHT22;15510;52.512;13.300;2023-04-10T11:37:01;22.50;93.50
28244;DHT22;15510;52.512;13.300;2023-04-10T11:39:30;22.50;93.10
28244;DHT22;15510;52.512;13.300;2023-04-10T11:41:56;22.80;91.90
28244;DHT22;15510;52.512;13.300;2023-04-10T11:44:28;23.40;90.50
28244;DHT22;15510;52.512;13.300;2023-04-10T11:46:55;23.60;86.90
28244;DHT22;15510;52.512;13.300;2023-04-10T11:49:23;23.90;85.30
28244;DHT22;15510;52.512;13.300;2023-04-10T11:51:51;24.30;81.30
28244;DHT22;15510;52.512;13.300;2023-04-10T11:54:18;24.50;78.20
28244;DHT22;15510;52.512;13.300;2023-04-10T11:56:55;24.50;78.60
28244;DHT22;15510;52.512;13.300;2023-04-10T11:59:22;25.00;75.40
28244;DHT22;15510;52.512;13.300;2023-04-10T12:01:49;24.90;73.00
28244;DHT22;15510;52.512;13.300;2023-04-10T12:04:20;24.80;74.10
28244;DHT22;15510;52.512;13.300;2023-04-10T12:06:47;25.00;73.50
28244;DHT22;15510;52.512;13.300;2023-04-10T12:09:19;25.10;71.80
28244;DHT22;15510;52.512;13.300;2023-04-10T12:11:52;25.10;68.70
28244;DHT22;15510;52.512;13.300;2023-04-10T12:14:22;24.90;70.00
28244;DHT22;15510;52.512;13.300;2023-04-10T12:16:49;25.20;69.10
28244;DHT22;15510;52.512;13.300;2023-04-10T12:19:15;25.70;67.00
28244;DHT22;15510;52.512;13.300;2023-04-10T12:21:43;26.40;65.20
28244;DHT22;15510;52.512;13.300;2023-04-10T12:24:10;26.50;64.20
28244;DHT22;15510;52.512;13.300;2023-04-10T12:26:37;26.40;63.30
28244;DHT22;15510;52.512;13.300;2023-04-10T12:29:03;26.60;63.20
28244;DHT22;15510;52.512;13.300;2023-04-10T12:31:34;26.70;61.90
28244;DHT22;15510;52.512;13.300;2023-04-10T12:34:02;26.70;60.90
28244;DHT22;15510;52.512;13.300;2023-04-10T12:36:30;26.60;59.50
28244;DHT22;15510;52.512;13.300;2023-04-10T12:39:00;26.60;59.10
28244;DHT22;15510;52.512;13.300;2023-04-10T12:41:32;26.70;58.60
28244;DHT22;15510;52.512;13.300;2023-04-10T12:44:09;26.20;57.90
28244;DHT22;15510;52.512;13.300;2023-04-10T12:46:35;25.80;57.80
28244;DHT22;15510;52.512;13.300;2023-04-10T12:49:17;25.40;59.60
28244;DHT22;15510;52.512;13.300;2023-04-10T12:51:46;25.60;57.00
28244;DHT22;15510;52.512;13.300;2023-04-10T12:54:29;25.40;57.30
28244;DHT22;15510;52.512;13.300;2023-04-10T12:56:55;25.30;57.40
28244;DHT22;15510;52.512;13.300;2023-04-10T12:59:22;25.20;57.90
28244;DHT22;15510;52.512;13.300;2023-04-10T13:01:48;25.10;58.40
28244;DHT22;15510;52.512;13.300;2023-04-10T13:04:14;25.30;57.90
28244;DHT22;15510;52.512;13.300;2023-04-10T13:06:43;25.60;56.30
28244;DHT22;15510;52.512;13.300;2023-04-10T13:09:11;25.60;55.70
28244;DHT22;15510;52.512;13.300;2023-04-10T13:11:36;25.50;55.30
28244;DHT22;15510;52.512;13.300;2023-04-10T13:14:02;25.10;55.30
28244;DHT22;15510;52.512;13.300;2023-04-10T13:16:28;25.30;56.30
28244;DHT22;15510;52.512;13.300;2023-04-10T13:18:53;25.60;56.30
28244;DHT22;15510;52.512;13.300;2023-04-10T13:21:20;25.60;56.60
28244;DHT22;15510;52.512;13.300;2023-04-10T13:23:59;26.00;55.00
28244;DHT22;15510;52.512;13.300;2023-04-10T13:26:24;26.20;54.30
28244;DHT22;15510;52.512;13.300;2023-04-10T13:28:50;25.70;55.00
28244;DHT22;15510;52.512;13.300;2023-04-10T13:31:16;24.80;56.90
28244;DHT22;15510;52.512;13.300;2023-04-10T13:33:47;23.90;58.30
28244;DHT22;15510;52.512;13.300;2023-04-10T13:36:15;23.30;61.00
28244;DHT22;15510;52.512;13.300;2023-04-10T13:38:41;23.70;60.70
28244;DHT22;15510;52.512;13.300;2023-04-10T13:41:07;24.50;59.50
28244;DHT22;15510;52.512;13.300;2023-04-10T13:43:33;25.00;58.20
28244;DHT22;15510;52.512;13.300;2023-04-10T13:45:58;25.20;57.90
28244;DHT22;15510;52.512;13.300;2023-04-10T13:48:24;25.70;56.90
28244;DHT22;15510;52.512;13.300;2023-04-10T13:50:50;26.50;55.80
28244;DHT22;15510;52.512;13.300;2023-04-10T13:53:15;25.80;55.80
28244;DHT22;15510;52.512;13.300;2023-04-10T13:55:41;25.40;56.50
28244;DHT22;15510;52.512;13.300;2023-04-10T13:58:09;25.70;56.60
28244;DHT22;15510;52.512;13.300;2023-04-10T14:00:37;25.10;56.30
28244;DHT22;15510;52.512;13.300;2023-04-10T14:03:03;24.30;58.20
28244;DHT22;15510;52.512;13.300;2023-04-10T14:05:29;24.60;57.90
28244;DHT22;15510;52.512;13.300;2023-04-10T14:07:55;24.90;57.40
28244;DHT22;15510;52.512;13.300;2023-04-10T14:10:24;24.60;57.50
28244;DHT22;15510;52.512;13.300;2023-04-10T14:12:50;24.30;58.20
28244;DHT22;15510;52.512;13.300;2023-04-10T14:15:15;24.00;58.40
28244;DHT22;15510;52.512;13.300;2023-04-10T14:17:41;23.20;59.40
28244;DHT22;15510;52.512;13.300;2023-04-10T14:20:07;22.40;61.90
28244;DHT22;15510;52.512;13.300;2023-04-10T14:22:36;21.70;64.00
28244;DHT22;15510;52.512;13.300;2023-04-10T14:25:02;21.10;68.10
28244;DHT22;15510;52.512;13.300;2023-04-10T14:27:29;20.50;71.40
28244;DHT22;15510;52.512;13.300;2023-04-10T14:29:56;20.00;74.40
28244;DHT22;15510;52.512;13.300;2023-04-10T14:32:21;19.70;76.50
28244;DHT22;15510;52.512;13.300;2023-04-10T14:34:47;19.30;79.50
28244;DHT22;15510;52.512;13.300;2023-04-10T14:37:13;18.80;83.40
28244;DHT22;15510;52.512;13.300;2023-04-10T14:39:39;18.50;87.10
28244;DHT22;15510;52.512;13.300;2023-04-10T14:42:04;18.40;89.50
28244;DHT22;15510;52.512;13.300;2023-04-10T14:44:30;18.30;90.10
28244;DHT22;15510;52.512;13.300;2023-04-10T14:46:56;18.20;90.50
28244;DHT22;15510;52.512;13.300;2023-04-10T14:49:22;18.10;91.40
28244;DHT22;15510;52.512;13.300;2023-04-10T14:51:47;17.90;91.60
28244;DHT22;15510;52.512;13.300;2023-04-10T14:54:14;17.80;92.60
28244;DHT22;15510;52.512;13.300;2023-04-10T14:56:46;17.70;93.50
28244;DHT22;15510;52.512;13.300;2023-04-10T14:59:12;17.60;93.90
28244;DHT22;15510;52.512;13.300;2023-04-10T15:01:38;17.50;94.50
28244;DHT22;15510;52.512;13.300;2023-04-10T15:04:03;17.40;95.20
28244;DHT22;15510;52.512;13.300;2023-04-10T15:06:31;17.30;95.90
28244;DHT22;15510;52.512;13.300;2023-04-10T15:08:57;17.20;96.60
28244;DHT22;15510;52.512;13.300;2023-04-10T15:11:22;17.20;97.30
28244;DHT22;15510;52.512;13.300;2023-04-10T15:13:48;17.30;97.90
28244;DHT22;15510;52.512;13.300;2023-04-10T15:16:14;17.40;97.70
28244;DHT22;15510;52.512;13.300;2023-04-10T15:18:40;17.50;96.70
28244;DHT22;15510;52.512;13.300;2023-04-10T15:21:05;17.50;97.00
28244;DHT22;15510;52.512;13.300;2023-04-10T15:23:31;17.50;96.80
28244;DHT22;15510;52.512;13.300;2023-04-10T15:25:57;17.60;96.70
28244;DHT22;15510;52.512;13.300;2023-04-10T15:28:23;17.50;97.30
28244;DHT22;15510;52.512;13.300;2023-04-10T15:30:49;17.40;97.80
28244;DHT22;15510;52.512;13.300;2023-04-10T15:33:15;17.20;97.80
28244;DHT22;15510;52.512;13.300;2023-04-10T15:35:41;17.20;98.10
28244;DHT22;15510;52.512;13.300;2023-04-10T15:38:11;17.20;98.20
28244;DHT22;15510;52.512;13.300;2023-04-10T15:40:37;17.20;98.60
28244;DHT22;15510;52.512;13.300;2023-04-10T15:43:03;17.20;98.00
28244;DHT22;15510;52.512;13.300;2023-04-10T15:45:29;17.30;98.10
28244;DHT22;15510;52.512;13.300;2023-04-10T15:47:54;17.40;97.60
28244;DHT22;15510;52.512;13.300;2023-04-10T15:50:20;17.30;97.50
28244;DHT22;15510;52.512;13.300;2023-04-10T15:52:46;17.30;97.50
28244;DHT22;15510;52.512;13.300;2023-04-10T15:55:11;17.30;96.60
28244;DHT22;15510;52.512;13.300;2023-04-10T15:57:37;17.20;96.90
28244;DHT22;15510;52.512;13.300;2023-04-10T16:00:03;17.20;97.00
28244;DHT22;15510;52.512;13.300;2023-04-10T16:02:29;17.20;97.00
28244;DHT22;15510;52.512;13.300;2023-04-10T16:04:56;17.20;96.40
28244;DHT22;15510;52.512;13.300;2023-04-10T16:07:22;17.10;97.30
28244;DHT22;15510;52.512;13.300;2023-04-10T16:09:47;17.00;96.80
28244;DHT22;15510;52.512;13.300;2023-04-10T16:12:13;17.00;96.90
28244;DHT22;15510;52.512;13.300;2023-04-10T16:14:39;17.00;97.00
28244;DHT22;15510;52.512;13.300;2023-04-10T16:17:05;16.90;97.10
28244;DHT22;15510;52.512;13.300;2023-04-10T16:19:31;16.80;97.40
28244;DHT22;15510;52.512;13.300;2023-04-10T16:21:57;16.80;97.80
28244;DHT22;15510;52.512;13.300;2023-04-10T16:24:23;16.70;98.10
28244;DHT22;15510;52.512;13.300;2023-04-10T16:26:48;16.70;97.90